createdAt,value
2022-12-24T00:01:30.536Z,1.90
2022-12-24T00:04:01.348Z,2.00
2022-12-24T00:06:31.845Z,2.22
2022-12-24T00:09:02.252Z,2.27
2022-12-24T00:11:32.834Z,2.05
2022-12-24T00:14:03.779Z,1.92
2022-12-24T00:16:34.095Z,1.80
2022-12-24T00:19:04.697Z,1.60
2022-12-24T00:21:35.372Z,1.30
2022-12-24T00:24:06.772Z,1.30
2022-12-24T00:26:52.032Z,1.20
2022-12-24T00:29:23.308Z,1.30
2022-12-24T00:31:53.606Z,1.15
2022-12-24T00:34:25.625Z,1.30
2022-12-24T00:36:56.069Z,1.02
2022-12-24T00:39:26.434Z,0.88
2022-12-24T00:41:57.479Z,1.05
2022-12-24T00:44:30.440Z,0.80
2022-12-24T00:47:03.432Z,0.90
2022-12-24T00:49:32.963Z,0.75
2022-12-24T00:52:04.248Z,0.73
2022-12-24T00:54:38.739Z,0.50
2022-12-24T00:57:09.023Z,0.80
2022-12-24T00:59:39.518Z,0.80
2022-12-24T01:02:10.083Z,0.65
2022-12-24T01:04:58.319Z,0.50
2022-12-24T01:07:28.800Z,0.63
2022-12-24T01:09:59.452Z,0.60
2022-12-24T01:12:32.640Z,1.00
2022-12-24T01:15:02.987Z,1.30
2022-12-24T01:17:35.259Z,1.50
2022-12-24T01:20:07.899Z,1.53
2022-12-24T01:22:39.713Z,2.10
2022-12-24T01:25:12.771Z,1.70
2022-12-24T01:27:43.118Z,1.77
2022-12-24T01:30:15.988Z,1.60
2022-12-24T01:32:49.730Z,1.30
2022-12-24T01:35:23.889Z,1.20
2022-12-24T01:40:43.300Z,1.20
2022-12-24T01:43:26.469Z,1.10
2022-12-24T01:46:01.590Z,1.00
2022-12-24T01:48:46.609Z,0.90
2022-12-24T01:51:31.475Z,0.68
2022-12-24T01:54:22.085Z,0.57
2022-12-24T01:56:55.501Z,0.66
2022-12-24T01:59:25.665Z,0.60
2022-12-24T02:01:56.640Z,0.70
2022-12-24T02:04:36.283Z,0.85
2022-12-24T02:07:06.797Z,0.50
2022-12-24T02:09:37.594Z,0.80
2022-12-24T02:12:08.371Z,0.80
2022-12-24T02:14:38.920Z,0.50
2022-12-24T02:17:31.734Z,0.60
2022-12-24T02:20:36.729Z,0.62
2022-12-24T02:23:42.999Z,0.47
2022-12-24T02:26:18.999Z,0.50
2022-12-24T02:29:08.401Z,0.53
2022-12-24T02:31:46.407Z,0.70
2022-12-24T02:34:25.296Z,0.50
2022-12-24T02:37:00.486Z,0.40
2022-12-24T02:39:43.015Z,0.40
2022-12-24T02:42:13.702Z,0.40
2022-12-24T02:44:52.409Z,0.45
2022-12-24T02:47:24.140Z,0.30
2022-12-24T02:49:58.679Z,0.35
2022-12-24T02:52:36.455Z,0.30
2022-12-24T02:55:12.978Z,0.30
2022-12-24T02:57:57.911Z,0.40
2022-12-24T03:03:01.828Z,0.50
2022-12-24T03:08:15.105Z,0.30
2022-12-24T03:10:51.117Z,0.55
2022-12-24T03:13:22.765Z,0.30
2022-12-24T03:15:53.092Z,0.30
2022-12-24T03:18:29.386Z,0.55
2022-12-24T03:21:01.074Z,0.40
2022-12-24T03:23:32.073Z,0.37
2022-12-24T03:26:02.583Z,0.30
2022-12-24T03:28:33.063Z,0.30
2022-12-24T03:31:09.151Z,0.40
2022-12-24T03:33:39.497Z,0.40
2022-12-24T03:36:10.585Z,0.30
2022-12-24T03:38:41.080Z,0.23
2022-12-24T03:41:14.216Z,0.50
2022-12-24T03:43:44.699Z,0.30
2022-12-24T03:46:15.255Z,0.30
2022-12-24T03:48:45.932Z,0.20
2022-12-24T03:51:23.353Z,0.20
2022-12-24T03:53:55.275Z,0.35
2022-12-24T03:56:25.576Z,0.50
2022-12-24T03:58:55.855Z,0.30
2022-12-24T04:01:27.161Z,0.30
2022-12-24T04:03:57.871Z,0.40
2022-12-24T04:06:31.437Z,0.40
2022-12-24T04:09:06.413Z,0.40
2022-12-24T04:11:36.899Z,0.40
2022-12-24T04:16:51.429Z,0.40
2022-12-24T04:19:22.873Z,0.47
2022-12-24T04:21:55.307Z,0.40
2022-12-24T04:24:26.582Z,0.40
2022-12-24T04:27:00.493Z,0.57
2022-12-24T04:29:33.244Z,0.70
2022-12-24T04:32:04.414Z,0.70
2022-12-24T04:34:54.198Z,0.53
2022-12-24T04:37:24.838Z,0.60
2022-12-24T04:39:55.462Z,0.72
2022-12-24T04:42:26.914Z,0.50
2022-12-24T04:45:00.957Z,0.60
2022-12-24T04:47:33.710Z,0.40
2022-12-24T04:50:04.223Z,0.30
2022-12-24T04:52:39.819Z,0.50
2022-12-24T04:55:29.385Z,0.30
2022-12-24T05:00:43.433Z,0.42
2022-12-24T05:03:13.958Z,0.40
2022-12-24T05:05:44.486Z,0.60
2022-12-24T05:08:14.848Z,0.40
2022-12-24T05:10:45.480Z,0.50
2022-12-24T05:13:15.883Z,0.30
2022-12-24T05:15:47.403Z,0.30
2022-12-24T05:18:18.687Z,0.40
2022-12-24T05:20:50.225Z,0.50
2022-12-24T05:23:40.928Z,0.40
2022-12-24T05:26:26.350Z,0.40
2022-12-24T05:28:58.162Z,0.40
2022-12-24T05:31:31.621Z,0.30
2022-12-24T05:34:01.933Z,0.50
2022-12-24T05:36:32.420Z,0.40
2022-12-24T05:39:02.812Z,0.33
2022-12-24T05:41:33.111Z,0.40
2022-12-24T05:44:03.402Z,0.40
2022-12-24T05:46:33.857Z,0.50
2022-12-24T05:49:04.264Z,0.50
2022-12-24T05:51:34.682Z,0.45
2022-12-24T05:54:05.501Z,0.30
2022-12-24T05:56:35.941Z,0.40
2022-12-24T05:59:06.207Z,0.50
2022-12-24T06:01:36.867Z,0.35
2022-12-24T06:04:07.916Z,0.40
2022-12-24T06:06:38.514Z,0.40
2022-12-24T06:09:08.972Z,0.40
2022-12-24T06:11:39.397Z,0.40
2022-12-24T06:14:09.500Z,0.40
2022-12-24T06:16:42.981Z,0.50
2022-12-24T06:19:13.446Z,0.60
2022-12-24T06:21:44.165Z,0.30
2022-12-24T06:24:14.569Z,0.57
2022-12-24T06:26:44.641Z,0.50
2022-12-24T06:29:14.840Z,0.50
2022-12-24T06:31:45.676Z,0.40
2022-12-24T06:34:16.028Z,0.50
2022-12-24T06:36:46.594Z,0.40
2022-12-24T06:39:17.154Z,0.40
2022-12-24T06:41:47.568Z,0.42
2022-12-24T06:44:20.305Z,0.40
2022-12-24T06:46:51.233Z,0.42
2022-12-24T06:49:21.865Z,0.40
2022-12-24T06:51:52.947Z,0.40
2022-12-24T06:54:23.950Z,0.30
2022-12-24T06:56:57.135Z,0.40
2022-12-24T06:59:26.544Z,0.40
2022-12-24T07:01:57.207Z,0.40
2022-12-24T07:04:28.177Z,0.20
2022-12-24T07:06:58.835Z,0.30
2022-12-24T07:09:32.400Z,0.40
2022-12-24T07:12:02.692Z,0.30
2022-12-24T07:14:32.818Z,0.40
2022-12-24T07:17:03.148Z,0.40
2022-12-24T07:19:33.240Z,0.30
2022-12-24T07:22:03.524Z,0.30
2022-12-24T07:24:37.704Z,0.33
2022-12-24T07:27:11.006Z,0.40
2022-12-24T07:29:41.943Z,0.30
2022-12-24T07:32:12.219Z,0.40
2022-12-24T07:34:42.643Z,0.30
2022-12-24T07:37:15.031Z,0.30
2022-12-24T07:39:47.343Z,0.60
2022-12-24T07:42:17.440Z,0.37
2022-12-24T07:44:47.730Z,0.40
2022-12-24T07:47:18.788Z,0.38
2022-12-24T07:50:10.486Z,0.30
2022-12-24T07:52:41.096Z,0.37
2022-12-24T07:55:11.726Z,0.35
2022-12-24T07:57:44.754Z,0.40
2022-12-24T08:00:15.585Z,0.40
2022-12-24T08:02:47.810Z,0.30
2022-12-24T08:05:19.101Z,0.40
2022-12-24T08:07:50.226Z,0.40
2022-12-24T08:10:20.905Z,0.30
2022-12-24T08:12:51.536Z,0.30
2022-12-24T08:15:22.403Z,0.35
2022-12-24T08:17:54.608Z,0.30
2022-12-24T08:20:45.532Z,0.30
2022-12-24T08:23:16.314Z,0.35
2022-12-24T08:25:46.977Z,0.30
2022-12-24T08:28:19.557Z,0.30
2022-12-24T08:30:51.631Z,0.30
2022-12-24T08:33:22.978Z,0.30
2022-12-24T08:36:13.772Z,0.30
2022-12-24T08:38:44.237Z,0.33
2022-12-24T08:41:17.403Z,0.30
2022-12-24T08:43:47.953Z,0.20
2022-12-24T08:46:19.132Z,0.28
2022-12-24T08:48:53.550Z,0.23
2022-12-24T08:51:24.057Z,0.22
2022-12-24T08:53:54.361Z,0.20
2022-12-24T08:56:29.939Z,0.20
2022-12-24T08:59:00.583Z,0.40
2022-12-24T09:01:31.027Z,0.40
2022-12-24T09:04:03.995Z,0.30
2022-12-24T09:06:34.859Z,0.20
2022-12-24T09:09:25.515Z,0.30
2022-12-24T09:11:55.715Z,0.20
2022-12-24T09:14:26.059Z,0.25
2022-12-24T09:16:57.179Z,0.23
2022-12-24T09:19:27.800Z,0.23
2022-12-24T09:21:58.393Z,0.20
2022-12-24T09:24:29.032Z,0.23
2022-12-24T09:29:50.781Z,0.20
2022-12-24T09:32:21.478Z,0.20
2022-12-24T09:37:43.127Z,0.30
2022-12-24T09:40:16.116Z,0.20
2022-12-24T09:42:57.086Z,0.15
2022-12-24T09:45:33.129Z,0.27
2022-12-24T09:48:06.225Z,0.28
2022-12-24T09:50:44.085Z,0.20
2022-12-24T09:53:29.300Z,0.20
2022-12-24T09:56:00.225Z,0.20
2022-12-24T09:58:39.016Z,0.20
2022-12-24T10:01:09.588Z,0.20
2022-12-24T10:03:40.316Z,0.30
2022-12-24T10:06:15.863Z,0.20
2022-12-24T10:09:00.747Z,0.30
2022-12-24T10:11:59.007Z,0.20
2022-12-24T10:17:19.207Z,0.20
2022-12-24T10:20:11.239Z,0.20
2022-12-24T10:23:03.678Z,0.20
2022-12-24T10:25:48.653Z,0.30
2022-12-24T10:28:27.701Z,0.20
2022-12-24T10:31:00.316Z,0.30
2022-12-24T10:33:57.133Z,0.20
2022-12-24T10:36:30.221Z,0.30
2022-12-24T10:39:02.021Z,0.20
2022-12-24T10:41:32.829Z,0.20
2022-12-24T10:44:03.695Z,0.33
2022-12-24T10:46:39.750Z,0.10
2022-12-24T10:49:12.850Z,0.20
2022-12-24T10:52:02.584Z,0.20
2022-12-24T10:57:09.590Z,0.20
2022-12-24T10:59:48.405Z,0.20
2022-12-24T11:02:38.605Z,0.20
2022-12-24T11:05:11.860Z,0.13
2022-12-24T11:07:42.789Z,0.20
2022-12-24T11:10:15.836Z,0.20
2022-12-24T11:13:20.319Z,0.20
2022-12-24T11:15:38.813Z,0.20
2022-12-24T11:18:11.588Z,0.20
2022-12-24T11:20:42.038Z,0.20
2022-12-24T11:23:15.731Z,0.30
2022-12-24T11:25:47.691Z,0.20
2022-12-24T11:28:32.759Z,0.30
2022-12-24T11:31:08.808Z,0.20
2022-12-24T11:33:50.289Z,0.30
2022-12-24T11:36:22.115Z,0.10
2022-12-24T11:38:56.014Z,0.20
2022-12-24T11:41:26.667Z,0.30
2022-12-24T11:44:05.688Z,0.20
2022-12-24T11:46:40.783Z,0.30
2022-12-24T11:49:25.190Z,0.20
2022-12-24T11:54:50.497Z,0.20
2022-12-24T11:57:22.337Z,0.20
2022-12-24T11:59:53.081Z,0.20
2022-12-24T12:02:32.919Z,0.40
2022-12-24T12:05:08.034Z,0.20
2022-12-24T12:07:39.133Z,0.20
2022-12-24T12:10:18.663Z,0.30
2022-12-24T12:12:52.107Z,0.20
2022-12-24T12:15:47.294Z,0.20
2022-12-24T12:18:24.756Z,0.20
2022-12-24T12:21:00.572Z,0.20
2022-12-24T12:23:42.584Z,0.30
2022-12-24T12:26:21.932Z,0.20
2022-12-24T12:29:02.939Z,0.20
2022-12-24T12:31:50.177Z,0.30
2022-12-24T12:34:52.632Z,0.23
2022-12-24T12:37:29.315Z,0.20
2022-12-24T12:39:59.886Z,0.20
2022-12-24T12:42:37.059Z,0.20
2022-12-24T12:45:27.893Z,0.20
2022-12-24T12:48:15.444Z,0.20
2022-12-24T12:50:51.597Z,0.25
2022-12-24T12:53:27.605Z,0.13
2022-12-24T12:56:16.275Z,0.20
2022-12-24T12:59:06.505Z,0.20
2022-12-24T13:02:15.947Z,0.20
2022-12-24T13:04:57.854Z,0.30
2022-12-24T13:08:00.682Z,0.20
2022-12-24T13:10:36.301Z,0.40
2022-12-24T13:13:35.451Z,0.20
2022-12-24T13:16:30.913Z,0.30
2022-12-24T13:19:09.287Z,0.20
2022-12-24T13:21:39.532Z,0.40
2022-12-24T13:24:29.210Z,0.20
2022-12-24T13:27:32.737Z,0.20
2022-12-24T13:30:25.115Z,0.30
2022-12-24T13:32:58.674Z,0.20
2022-12-24T13:35:37.281Z,0.20
2022-12-24T13:38:15.003Z,0.20
2022-12-24T13:40:45.547Z,0.20
2022-12-24T13:43:16.361Z,0.10
2022-12-24T13:45:48.089Z,0.20
2022-12-24T13:48:26.470Z,0.20
2022-12-24T13:50:57.485Z,0.15
2022-12-24T13:53:36.802Z,0.10
2022-12-24T13:56:11.786Z,0.10
2022-12-24T13:58:50.191Z,0.20
2022-12-24T14:01:25.112Z,0.10
2022-12-24T14:03:56.885Z,0.17
2022-12-24T14:06:42.028Z,0.20
2022-12-24T14:09:19.805Z,0.10
2022-12-24T14:12:02.232Z,0.20
2022-12-24T14:14:37.686Z,0.10
2022-12-24T14:17:13.042Z,0.20
2022-12-24T14:19:45.425Z,0.10
2022-12-24T14:22:18.385Z,0.10
2022-12-24T14:24:52.432Z,0.10
2022-12-24T14:27:43.770Z,0.10
2022-12-24T14:30:22.173Z,0.20
2022-12-24T14:32:53.646Z,0.10
2022-12-24T14:35:29.501Z,0.20
2022-12-24T14:38:04.268Z,0.10
2022-12-24T14:40:39.631Z,0.10
2022-12-24T14:43:29.063Z,0.20
2022-12-24T14:46:18.979Z,0.20
2022-12-24T14:49:02.091Z,0.10
2022-12-24T14:51:49.955Z,0.20
2022-12-24T14:54:32.834Z,0.20
2022-12-24T14:57:17.835Z,0.20
2022-12-24T14:59:55.794Z,0.20
2022-12-24T15:02:48.127Z,0.10
2022-12-24T15:05:22.593Z,0.20
2022-12-24T15:07:56.805Z,0.20
2022-12-24T15:10:31.819Z,0.20
2022-12-24T15:13:19.465Z,0.10
2022-12-24T15:15:52.838Z,0.10
2022-12-24T15:18:29.717Z,0.20
2022-12-24T15:21:07.415Z,0.13
2022-12-24T15:23:40.341Z,0.17
2022-12-24T15:26:12.697Z,0.20
2022-12-24T15:28:42.929Z,0.20
2022-12-24T15:31:25.587Z,0.17
2022-12-24T15:33:56.948Z,0.20
2022-12-24T15:36:37.954Z,0.25
2022-12-24T15:39:09.650Z,0.30
2022-12-24T15:41:44.892Z,0.20
2022-12-24T15:44:16.025Z,0.20
2022-12-24T15:46:46.425Z,0.20
2022-12-24T15:49:16.352Z,0.20
2022-12-24T15:51:50.264Z,0.20
2022-12-24T15:54:22.631Z,0.20
2022-12-24T15:56:56.232Z,0.20
2022-12-24T15:59:32.243Z,0.20
2022-12-24T16:02:33.712Z,0.23
2022-12-24T16:05:30.290Z,0.20
2022-12-24T16:08:20.977Z,0.20
2022-12-24T16:10:53.984Z,0.20
2022-12-24T16:13:37.084Z,0.30
2022-12-24T16:16:18.059Z,0.30
2022-12-24T16:18:57.478Z,0.20
2022-12-24T16:21:39.184Z,0.42
2022-12-24T16:24:27.555Z,0.60
2022-12-24T16:26:58.020Z,0.53
2022-12-24T16:29:28.798Z,0.93
2022-12-24T16:32:00.120Z,1.00
2022-12-24T16:34:33.403Z,1.83
2022-12-24T16:37:03.824Z,2.92
2022-12-24T16:39:36.102Z,2.72
2022-12-24T16:42:23.651Z,4.10
2022-12-24T16:44:58.285Z,4.97
2022-12-24T16:47:33.830Z,5.13
2022-12-24T16:50:03.206Z,5.57
2022-12-24T16:52:34.556Z,5.90
2022-12-24T16:55:05.086Z,6.03
2022-12-24T16:57:36.239Z,6.80
2022-12-24T17:00:09.214Z,6.47
2022-12-24T17:02:39.926Z,6.65
2022-12-24T17:05:11.326Z,6.20
2022-12-24T17:07:44.004Z,6.07
2022-12-24T17:10:16.983Z,6.55
2022-12-24T17:12:47.295Z,6.70
2022-12-24T17:15:17.477Z,6.58
2022-12-24T17:17:50.634Z,5.70
2022-12-24T17:20:24.579Z,6.06
2022-12-24T17:22:55.521Z,6.20
2022-12-24T17:25:26.370Z,5.83
2022-12-24T17:27:59.353Z,5.60
2022-12-24T17:30:30.188Z,5.37
2022-12-24T17:33:00.575Z,4.45
2022-12-24T17:35:31.187Z,4.70
2022-12-24T17:38:01.675Z,4.60
2022-12-24T17:40:32.623Z,4.30
2022-12-24T17:43:03.059Z,3.52
2022-12-24T17:45:33.323Z,3.98
2022-12-24T17:48:04.004Z,3.80
2022-12-24T17:50:34.163Z,3.60
2022-12-24T17:53:07.860Z,3.55
2022-12-24T17:55:40.240Z,3.10
2022-12-24T17:58:10.673Z,3.30
2022-12-24T18:00:41.300Z,2.73
2022-12-24T18:03:14.830Z,3.20
2022-12-24T18:05:45.140Z,2.95
2022-12-24T18:08:15.442Z,3.05
2022-12-24T18:10:47.154Z,2.70
2022-12-24T18:13:19.569Z,2.77
2022-12-24T18:15:49.749Z,2.55
2022-12-24T18:18:20.131Z,2.45
2022-12-24T18:20:50.979Z,2.76
2022-12-24T18:23:22.223Z,2.34
2022-12-24T18:25:53.341Z,2.33
2022-12-24T18:28:24.560Z,2.42
2022-12-24T18:31:05.939Z,2.30
2022-12-24T18:33:36.240Z,2.40
2022-12-24T18:36:06.532Z,2.52
2022-12-24T18:38:38.342Z,2.33
2022-12-24T18:41:14.289Z,1.92
2022-12-24T18:43:44.508Z,1.82
2022-12-24T18:46:19.919Z,2.05
2022-12-24T18:48:51.244Z,2.12
2022-12-24T18:51:24.111Z,2.22
2022-12-24T18:53:54.699Z,2.08
2022-12-24T18:56:26.392Z,2.00
2022-12-24T18:58:59.248Z,1.87
2022-12-24T19:01:34.272Z,1.80
2022-12-24T19:04:04.660Z,1.60
2022-12-24T19:06:34.939Z,1.87
2022-12-24T19:09:05.204Z,1.62
2022-12-24T19:11:35.852Z,1.67
2022-12-24T19:14:06.207Z,1.52
2022-12-24T19:16:38.058Z,1.80
2022-12-24T19:19:09.871Z,1.57
2022-12-24T19:21:39.901Z,1.77
2022-12-24T19:24:13.332Z,1.20
2022-12-24T19:26:46.718Z,0.97
2022-12-24T19:29:17.677Z,1.20
2022-12-24T19:31:48.360Z,1.00
2022-12-24T19:34:18.798Z,1.00
2022-12-24T19:36:51.528Z,0.90
2022-12-24T19:39:28.190Z,0.74
2022-12-24T19:41:54.903Z,0.90
2022-12-24T19:44:25.638Z,0.90
2022-12-24T19:46:56.176Z,0.96
2022-12-24T19:49:26.657Z,0.80
2022-12-24T19:51:56.993Z,1.02
2022-12-24T19:54:27.990Z,0.83
2022-12-24T19:56:58.160Z,0.80
2022-12-24T19:59:28.791Z,0.90
2022-12-24T20:01:59.275Z,0.90
2022-12-24T20:04:30.146Z,0.70
2022-12-24T20:07:01.080Z,0.80
2022-12-24T20:09:33.114Z,0.90
2022-12-24T20:12:04.575Z,0.80
2022-12-24T20:14:35.094Z,0.90
2022-12-24T20:17:05.648Z,0.75
2022-12-24T20:19:36.337Z,0.77
2022-12-24T20:22:07.273Z,0.80
2022-12-24T20:24:37.914Z,0.80
2022-12-24T20:27:10.859Z,0.70
2022-12-24T20:29:41.715Z,0.90
2022-12-24T20:32:15.161Z,0.60
2022-12-24T20:34:45.661Z,0.70
2022-12-24T20:37:15.839Z,0.60
2022-12-24T20:39:46.434Z,0.80
2022-12-24T20:42:16.986Z,0.70
2022-12-24T20:44:47.386Z,0.60
2022-12-24T20:47:17.715Z,0.50
2022-12-24T20:49:52.873Z,0.70
2022-12-24T20:52:23.713Z,1.20
2022-12-24T20:54:54.881Z,1.50
2022-12-24T20:57:30.054Z,1.98
2022-12-24T20:59:57.206Z,1.62
2022-12-24T21:02:30.342Z,1.90
2022-12-24T21:05:05.292Z,1.60
2022-12-24T21:07:33.101Z,1.62
2022-12-24T21:10:03.539Z,1.45
2022-12-24T21:12:53.811Z,1.10
2022-12-24T21:15:26.270Z,1.52
2022-12-24T21:17:56.555Z,0.90
2022-12-24T21:20:28.067Z,1.10
2022-12-24T21:23:01.282Z,0.98
2022-12-24T21:25:31.721Z,1.03
2022-12-24T21:28:02.060Z,0.90
2022-12-24T21:30:33.250Z,0.73
2022-12-24T21:33:06.165Z,0.67
2022-12-24T21:35:39.651Z,0.60
2022-12-24T21:38:11.416Z,0.60
2022-12-24T21:40:42.078Z,0.50
2022-12-24T21:43:12.824Z,0.60
2022-12-24T21:45:46.630Z,0.40
2022-12-24T21:48:36.679Z,0.50
2022-12-24T21:51:07.460Z,0.55
2022-12-24T21:53:48.024Z,0.47
2022-12-24T21:56:18.687Z,0.33
2022-12-24T21:58:50.345Z,0.40
2022-12-24T22:01:23.401Z,0.50
2022-12-24T22:03:54.189Z,0.33
2022-12-24T22:06:43.011Z,0.40
2022-12-24T22:09:30.977Z,0.50
2022-12-24T22:12:01.436Z,0.60
2022-12-24T22:14:33.834Z,0.30
2022-12-24T22:17:07.748Z,0.33
2022-12-24T22:19:38.942Z,0.40
2022-12-24T22:22:09.576Z,0.33
2022-12-24T22:24:39.834Z,0.30
2022-12-24T22:27:10.345Z,0.30
2022-12-24T22:29:43.945Z,0.30
2022-12-24T22:32:12.982Z,0.50
2022-12-24T22:34:43.367Z,0.30
2022-12-24T22:37:13.884Z,0.27
2022-12-24T22:39:44.396Z,0.30
2022-12-24T22:42:15.109Z,0.30
2022-12-24T22:44:45.602Z,0.30
2022-12-24T22:47:16.329Z,0.30
2022-12-24T22:49:46.590Z,0.30
2022-12-24T22:52:17.093Z,0.40
2022-12-24T22:54:47.440Z,0.20
2022-12-24T22:57:18.031Z,0.30
2022-12-24T22:59:49.122Z,0.30
2022-12-24T23:02:27.895Z,0.40
2022-12-24T23:04:56.807Z,0.30
2022-12-24T23:07:26.960Z,0.30
2022-12-24T23:09:58.669Z,0.20
2022-12-24T23:12:36.069Z,0.30
2022-12-24T23:15:06.123Z,0.40
2022-12-24T23:17:36.373Z,0.25
2022-12-24T23:20:11.429Z,0.40
2022-12-24T23:22:41.705Z,0.40
2022-12-24T23:25:12.160Z,0.60
2022-12-24T23:27:42.938Z,0.40
2022-12-24T23:30:13.434Z,0.40
2022-12-24T23:32:43.614Z,0.37
2022-12-24T23:35:14.154Z,0.30
2022-12-24T23:37:44.671Z,0.40
2022-12-24T23:40:15.324Z,0.30
2022-12-24T23:42:45.885Z,0.30
2022-12-24T23:45:18.584Z,0.20
2022-12-24T23:47:49.240Z,0.23
2022-12-24T23:50:21.423Z,0.20
2022-12-24T23:52:54.839Z,0.30
2022-12-24T23:55:25.367Z,0.30
2022-12-24T23:57:56.760Z,0.40
